createdAt,value
2023-01-26T00:00:31.973Z,8.20
2023-01-26T00:03:22.175Z,6.30
2023-01-26T00:05:53.172Z,6.80
2023-01-26T00:08:24.145Z,6.80
2023-01-26T00:10:55.268Z,7.20
2023-01-26T00:13:26.324Z,6.30
2023-01-26T00:15:57.544Z,6.50
2023-01-26T00:21:03.145Z,6.70
2023-01-26T00:23:35.877Z,7.10
2023-01-26T00:26:08.831Z,6.40
2023-01-26T00:28:39.986Z,7.40
2023-01-26T00:31:13.080Z,5.10
2023-01-26T00:33:44.146Z,6.20
2023-01-26T00:36:16.015Z,5.40
2023-01-26T00:38:47.801Z,5.10
2023-01-26T00:41:36.181Z,9.90
2023-01-26T00:44:07.499Z,5.90
2023-01-26T00:46:38.832Z,6.60
2023-01-26T00:49:10.204Z,5.80
2023-01-26T00:51:41.220Z,10.10
2023-01-26T00:54:12.453Z,9.40
2023-01-26T00:56:43.640Z,6.70
2023-01-26T00:59:15.013Z,5.70
2023-01-26T01:01:46.379Z,4.90
2023-01-26T01:06:47.231Z,4.70
2023-01-26T01:09:18.153Z,5.00
2023-01-26T01:11:49.101Z,6.00
2023-01-26T01:14:20.442Z,10.90
2023-01-26T01:19:21.533Z,6.90
2023-01-26T01:24:21.911Z,8.50
2023-01-26T01:26:52.937Z,6.60
2023-01-26T01:29:24.074Z,5.90
2023-01-26T01:31:55.219Z,16.20
2023-01-26T01:34:26.338Z,7.70
2023-01-26T01:36:57.255Z,6.70
2023-01-26T01:39:28.410Z,5.40
2023-01-26T01:41:59.390Z,5.00
2023-01-26T01:44:30.806Z,5.60
2023-01-26T01:47:04.639Z,5.00
2023-01-26T01:49:39.975Z,6.00
2023-01-26T01:52:15.413Z,4.90
2023-01-26T01:54:52.057Z,4.90
2023-01-26T01:57:28.786Z,5.10
2023-01-26T02:00:05.181Z,5.20
2023-01-26T02:02:38.573Z,5.50
2023-01-26T02:05:20.743Z,5.20
2023-01-26T02:07:53.284Z,5.60
2023-01-26T02:10:24.789Z,5.10
2023-01-26T02:13:00.788Z,5.20
2023-01-26T02:15:33.017Z,4.80
2023-01-26T02:18:06.509Z,3.80
2023-01-26T02:20:44.525Z,3.80
2023-01-26T02:23:26.309Z,3.70
2023-01-26T02:26:15.221Z,3.90
2023-01-26T02:28:47.525Z,5.00
2023-01-26T02:31:20.016Z,4.10
2023-01-26T02:33:51.199Z,5.00
2023-01-26T02:39:01.406Z,5.10
2023-01-26T02:41:50.036Z,4.30
2023-01-26T02:44:21.677Z,3.70
2023-01-26T02:46:54.009Z,5.50
2023-01-26T02:49:42.654Z,4.70
2023-01-26T02:52:13.996Z,3.90
2023-01-26T02:55:02.598Z,4.30
2023-01-26T02:57:34.459Z,4.00
2023-01-26T03:00:08.777Z,3.80
2023-01-26T03:03:02.724Z,3.80
2023-01-26T03:05:34.010Z,4.60
2023-01-26T03:08:06.351Z,3.10
2023-01-26T03:10:37.781Z,3.70
2023-01-26T03:13:09.292Z,4.10
2023-01-26T03:15:52.781Z,4.00
2023-01-26T03:18:42.909Z,5.40
2023-01-26T03:21:33.506Z,4.00
2023-01-26T03:24:23.083Z,4.30
2023-01-26T03:27:11.469Z,3.80
2023-01-26T03:29:42.409Z,4.90
2023-01-26T03:32:13.476Z,3.70
2023-01-26T03:34:44.704Z,4.00
2023-01-26T03:37:16.335Z,4.20
2023-01-26T03:42:51.661Z,4.10
2023-01-26T03:45:40.131Z,4.40
2023-01-26T03:48:30.182Z,3.70
2023-01-26T03:51:18.914Z,3.70
2023-01-26T03:54:07.607Z,5.00
2023-01-26T03:56:38.592Z,4.60
2023-01-26T03:59:11.126Z,4.20
2023-01-26T04:02:01.628Z,5.80
2023-01-26T04:04:50.412Z,4.60
2023-01-26T04:07:38.800Z,5.60
2023-01-26T04:10:12.027Z,3.90
2023-01-26T04:12:43.251Z,4.10
2023-01-26T04:15:32.227Z,3.90
2023-01-26T04:18:25.850Z,10.20
2023-01-26T04:21:14.472Z,7.00
2023-01-26T04:23:45.488Z,28.40
2023-01-26T04:26:17.049Z,6.70
2023-01-26T04:28:48.211Z,14.30
2023-01-26T04:31:19.543Z,7.00
2023-01-26T04:33:50.779Z,5.30
2023-01-26T04:36:21.866Z,6.40
2023-01-26T04:38:52.798Z,6.30
2023-01-26T04:41:24.502Z,12.20
2023-01-26T04:46:24.946Z,4.90
2023-01-26T04:48:55.974Z,4.10
2023-01-26T04:51:28.370Z,5.10
2023-01-26T04:53:59.529Z,5.00
2023-01-26T04:56:32.672Z,4.70
2023-01-26T04:59:06.314Z,4.70
2023-01-26T05:01:37.800Z,3.80
2023-01-26T05:06:39.405Z,6.60
2023-01-26T05:09:10.576Z,7.20
2023-01-26T05:11:41.711Z,5.90
2023-01-26T05:14:12.713Z,5.20
2023-01-26T05:16:43.643Z,5.10
2023-01-26T05:19:15.221Z,4.70
2023-01-26T05:21:46.374Z,4.90
2023-01-26T05:24:17.848Z,5.70
2023-01-26T05:27:08.898Z,4.30
2023-01-26T05:29:39.885Z,5.60
2023-01-26T05:32:11.009Z,11.40
2023-01-26T05:34:42.702Z,6.80
2023-01-26T05:37:15.261Z,4.50
2023-01-26T05:39:46.469Z,4.40
2023-01-26T05:42:17.413Z,4.60
2023-01-26T05:44:48.479Z,4.10
2023-01-26T05:47:20.206Z,4.50
2023-01-26T05:49:51.271Z,4.20
2023-01-26T05:52:23.740Z,3.80
2023-01-26T05:54:54.601Z,4.40
2023-01-26T05:57:25.784Z,3.90
2023-01-26T05:59:56.663Z,3.80
2023-01-26T06:02:28.419Z,3.60
2023-01-26T06:04:59.478Z,3.50
2023-01-26T06:07:30.537Z,3.40
2023-01-26T06:10:01.488Z,3.80
2023-01-26T06:12:35.562Z,3.70
2023-01-26T06:15:07.716Z,4.20
2023-01-26T06:17:38.804Z,4.40
2023-01-26T06:20:12.845Z,3.70
2023-01-26T06:22:44.247Z,3.50
2023-01-26T06:25:15.363Z,4.00
2023-01-26T06:27:46.332Z,4.30
2023-01-26T06:30:18.610Z,3.70
2023-01-26T06:32:51.290Z,3.50
2023-01-26T06:35:22.486Z,3.50
2023-01-26T06:37:53.445Z,3.60
2023-01-26T06:40:24.492Z,3.40
2023-01-26T06:42:55.473Z,3.10
2023-01-26T06:45:26.515Z,4.00
2023-01-26T06:47:57.376Z,2.90
2023-01-26T06:50:34.700Z,3.40
2023-01-26T06:53:30.295Z,3.60
2023-01-26T06:56:01.404Z,3.50
2023-01-26T06:58:32.780Z,3.70
2023-01-26T07:01:03.931Z,6.80
2023-01-26T07:06:06.021Z,5.20
2023-01-26T07:08:36.930Z,11.00
2023-01-26T07:11:09.247Z,6.90
2023-01-26T07:13:40.647Z,7.00
2023-01-26T07:18:43.420Z,4.00
2023-01-26T07:21:16.283Z,5.00
2023-01-26T07:23:47.822Z,4.10
2023-01-26T07:26:19.334Z,4.40
2023-01-26T07:31:20.179Z,7.30
2023-01-26T07:33:51.218Z,8.80
2023-01-26T07:36:22.488Z,5.70
2023-01-26T07:38:53.728Z,4.90
2023-01-26T07:41:24.818Z,7.30
2023-01-26T07:43:55.946Z,7.20
2023-01-26T07:46:26.816Z,5.60
2023-01-26T07:48:58.550Z,5.60
2023-01-26T07:51:29.665Z,19.40
2023-01-26T07:54:00.794Z,10.10
2023-01-26T07:56:31.878Z,8.20
2023-01-26T07:59:03.993Z,4.70
2023-01-26T08:01:35.224Z,4.20
2023-01-26T08:04:07.493Z,5.60
2023-01-26T08:06:38.552Z,8.50
2023-01-26T08:09:09.809Z,6.50
2023-01-26T08:11:40.759Z,6.40
2023-01-26T08:14:11.855Z,4.40
2023-01-26T08:16:42.865Z,5.10
2023-01-26T08:19:14.182Z,5.60
2023-01-26T08:21:45.097Z,7.30
2023-01-26T08:24:16.329Z,6.10
2023-01-26T08:29:16.876Z,4.80
2023-01-26T08:31:48.015Z,3.80
2023-01-26T08:34:19.685Z,3.90
2023-01-26T08:36:50.662Z,3.60
2023-01-26T08:39:21.610Z,4.20
2023-01-26T08:41:52.493Z,4.30
2023-01-26T08:44:23.858Z,3.90
2023-01-26T08:46:54.892Z,3.80
2023-01-26T08:49:26.027Z,4.10
2023-01-26T08:54:26.774Z,4.60
2023-01-26T08:56:58.890Z,3.50
2023-01-26T08:59:30.115Z,3.90
2023-01-26T09:02:01.288Z,4.10
2023-01-26T09:04:32.522Z,3.60
2023-01-26T09:07:03.714Z,4.70
2023-01-26T09:09:34.949Z,3.90
2023-01-26T09:12:07.053Z,3.70
2023-01-26T09:14:38.114Z,4.20
2023-01-26T09:17:09.256Z,3.60
2023-01-26T09:19:40.440Z,3.80
2023-01-26T09:22:31.906Z,3.20
2023-01-26T09:25:03.177Z,4.30
2023-01-26T09:30:03.873Z,3.70
2023-01-26T09:32:35.103Z,4.00
2023-01-26T09:35:14.297Z,4.30
2023-01-26T09:37:47.194Z,3.30
2023-01-26T09:40:24.197Z,3.60
2023-01-26T09:43:06.429Z,3.40
2023-01-26T09:45:47.841Z,3.70
2023-01-26T09:48:29.846Z,3.00
2023-01-26T09:51:06.696Z,3.50
2023-01-26T09:53:46.849Z,3.00
2023-01-26T09:56:21.817Z,3.50
2023-01-26T09:58:59.345Z,3.70
2023-01-26T10:01:38.276Z,3.70
2023-01-26T10:04:16.863Z,3.10
2023-01-26T10:06:49.626Z,3.30
2023-01-26T10:09:27.899Z,3.20
2023-01-26T10:12:03.266Z,3.10
2023-01-26T10:14:40.939Z,2.70
2023-01-26T10:17:17.079Z,4.20
2023-01-26T10:19:53.405Z,3.10
2023-01-26T10:22:33.053Z,3.00
2023-01-26T10:25:12.798Z,3.50
2023-01-26T10:27:45.972Z,3.30
2023-01-26T10:30:20.966Z,3.20
2023-01-26T10:32:54.645Z,3.80
2023-01-26T10:35:26.694Z,3.20
2023-01-26T10:37:58.474Z,3.20
2023-01-26T10:40:29.806Z,2.80
2023-01-26T10:43:01.352Z,2.60
2023-01-26T10:45:34.963Z,3.00
2023-01-26T10:48:15.326Z,2.90
2023-01-26T10:50:46.638Z,2.90
2023-01-26T10:53:28.378Z,2.70
2023-01-26T10:56:04.796Z,2.90
2023-01-26T10:58:45.987Z,3.60
2023-01-26T11:01:18.908Z,3.50
2023-01-26T11:04:05.150Z,3.60
2023-01-26T11:06:36.857Z,2.90
2023-01-26T11:09:19.092Z,3.00
2023-01-26T11:12:02.413Z,3.30
2023-01-26T11:14:34.815Z,2.90
2023-01-26T11:17:16.265Z,2.90
2023-01-26T11:20:02.399Z,3.00
2023-01-26T11:22:40.295Z,2.50
2023-01-26T11:25:22.352Z,3.30
2023-01-26T11:28:09.304Z,2.90
2023-01-26T11:30:59.426Z,3.40
2023-01-26T11:36:18.156Z,3.40
2023-01-26T11:38:55.772Z,3.20
2023-01-26T11:41:43.341Z,7.10
2023-01-26T11:44:36.838Z,3.00
2023-01-26T11:47:24.816Z,3.00
2023-01-26T11:50:16.630Z,2.60
2023-01-26T11:53:02.904Z,2.90
2023-01-26T11:55:48.562Z,2.60
2023-01-26T11:58:29.709Z,4.30
2023-01-26T12:01:02.839Z,4.40
2023-01-26T12:03:42.730Z,3.80
2023-01-26T12:06:20.199Z,3.20
2023-01-26T12:08:56.097Z,4.40
2023-01-26T12:11:32.197Z,5.70
2023-01-26T12:14:16.753Z,8.50
2023-01-26T12:17:15.693Z,6.60
2023-01-26T12:19:55.886Z,3.60
2023-01-26T12:22:34.088Z,5.20
2023-01-26T12:25:29.391Z,5.00
2023-01-26T12:28:07.634Z,3.50
2023-01-26T12:30:47.962Z,4.10
2023-01-26T12:33:19.840Z,4.10
2023-01-26T12:36:09.576Z,3.70
2023-01-26T12:38:49.794Z,3.40
2023-01-26T12:41:33.432Z,3.20
2023-01-26T12:44:18.393Z,3.80
2023-01-26T12:46:53.469Z,3.50
2023-01-26T12:49:29.107Z,3.80
2023-01-26T12:52:07.572Z,3.30
2023-01-26T12:54:44.374Z,2.90
2023-01-26T12:57:20.706Z,4.20
2023-01-26T12:59:52.405Z,3.40
2023-01-26T13:02:30.875Z,4.10
2023-01-26T13:05:04.019Z,4.20
2023-01-26T13:07:37.637Z,3.10
2023-01-26T13:10:29.445Z,3.40
2023-01-26T13:13:03.098Z,3.90
2023-01-26T13:15:35.181Z,3.30
2023-01-26T13:18:08.831Z,3.10
2023-01-26T13:20:51.016Z,3.40
2023-01-26T13:23:45.195Z,3.50
2023-01-26T13:26:21.796Z,2.80
2023-01-26T13:28:54.438Z,3.50
2023-01-26T13:31:41.984Z,5.80
2023-01-26T13:34:15.856Z,3.70
2023-01-26T13:36:48.998Z,3.50
2023-01-26T13:39:27.952Z,3.60
2023-01-26T13:41:59.063Z,4.00
2023-01-26T13:44:39.444Z,3.20
2023-01-26T13:47:15.180Z,3.50
2023-01-26T13:49:46.127Z,3.80
2023-01-26T13:52:21.975Z,3.70
2023-01-26T13:54:54.667Z,4.00
2023-01-26T13:57:27.829Z,3.40
2023-01-26T14:00:01.096Z,4.60
2023-01-26T14:02:34.805Z,4.20
2023-01-26T14:05:06.788Z,3.90
2023-01-26T14:07:42.228Z,5.70
2023-01-26T14:10:19.956Z,14.50
2023-01-26T14:12:56.635Z,6.60
2023-01-26T14:15:29.753Z,5.20
2023-01-26T14:18:03.110Z,4.30
2023-01-26T14:20:36.912Z,4.90
2023-01-26T14:23:15.859Z,4.40
2023-01-26T14:25:57.510Z,27.90
2023-01-26T14:28:34.417Z,17.20
2023-01-26T14:31:08.601Z,6.10
2023-01-26T14:33:40.003Z,12.70
2023-01-26T14:36:17.744Z,7.60
2023-01-26T14:38:50.919Z,5.60
2023-01-26T14:41:25.548Z,4.20
2023-01-26T14:44:00.122Z,4.10
2023-01-26T14:46:37.030Z,5.60
2023-01-26T14:49:13.650Z,4.70
2023-01-26T14:51:48.437Z,4.30
2023-01-26T14:54:27.141Z,4.70
2023-01-26T14:56:59.495Z,4.10
2023-01-26T14:59:36.445Z,4.20
2023-01-26T15:02:22.018Z,4.60
2023-01-26T15:04:57.196Z,4.70
2023-01-26T15:07:42.562Z,4.40
2023-01-26T15:10:33.697Z,4.70
2023-01-26T15:13:07.210Z,5.10
2023-01-26T15:15:41.132Z,5.30
2023-01-26T15:18:23.038Z,5.10
2023-01-26T15:21:05.040Z,4.50
2023-01-26T15:23:38.177Z,3.90
2023-01-26T15:26:11.573Z,3.90
2023-01-26T15:28:43.127Z,4.30
2023-01-26T15:33:54.343Z,4.10
2023-01-26T15:36:30.272Z,3.60
2023-01-26T15:39:05.019Z,3.50
2023-01-26T15:41:36.463Z,3.80
2023-01-26T15:44:11.533Z,3.70
2023-01-26T15:46:42.793Z,4.00
2023-01-26T15:49:14.457Z,3.70
2023-01-26T15:51:45.803Z,4.00
2023-01-26T15:54:16.868Z,4.10
2023-01-26T15:56:48.050Z,4.00
2023-01-26T15:59:18.906Z,3.50
2023-01-26T16:01:52.571Z,3.90
2023-01-26T16:04:25.407Z,3.90
2023-01-26T16:06:56.519Z,3.50
2023-01-26T16:09:27.866Z,4.70
2023-01-26T16:11:58.999Z,4.40
2023-01-26T16:14:30.130Z,4.60
2023-01-26T16:17:01.173Z,5.20
2023-01-26T16:19:35.514Z,4.60
2023-01-26T16:22:06.696Z,4.70
2023-01-26T16:24:37.551Z,5.10
2023-01-26T16:27:10.919Z,4.60
2023-01-26T16:29:41.913Z,4.70
2023-01-26T16:32:28.246Z,5.60
2023-01-26T16:34:59.917Z,5.00
2023-01-26T16:37:31.113Z,5.20
2023-01-26T16:40:02.277Z,5.00
2023-01-26T16:42:36.011Z,5.80
2023-01-26T16:45:08.317Z,5.10
2023-01-26T16:47:39.506Z,5.40
2023-01-26T16:50:12.150Z,5.10
2023-01-26T16:52:44.494Z,4.70
2023-01-26T16:55:17.348Z,5.70
2023-01-26T16:57:50.017Z,6.40
2023-01-26T17:00:23.522Z,9.80
2023-01-26T17:02:55.423Z,8.50
2023-01-26T17:05:26.581Z,9.30
2023-01-26T17:07:57.529Z,9.30
2023-01-26T17:10:28.498Z,6.40
2023-01-26T17:12:59.796Z,5.70
2023-01-26T17:15:31.311Z,5.80
2023-01-26T17:20:32.416Z,5.60
2023-01-26T17:23:03.407Z,6.30
2023-01-26T17:25:34.487Z,8.00
2023-01-26T17:28:06.101Z,8.00
2023-01-26T17:30:37.089Z,8.80
2023-01-26T17:33:08.345Z,8.30
2023-01-26T17:35:39.504Z,24.10
2023-01-26T17:38:11.237Z,16.00
2023-01-26T17:40:42.066Z,9.10
2023-01-26T17:43:13.107Z,8.70
2023-01-26T17:45:44.381Z,10.20
2023-01-26T17:48:15.652Z,9.80
2023-01-26T17:50:52.023Z,8.50
2023-01-26T17:53:24.421Z,8.00
2023-01-26T17:55:55.616Z,12.40
2023-01-26T17:58:26.649Z,10.80
2023-01-26T18:00:57.787Z,8.50
2023-01-26T18:03:28.842Z,8.10
2023-01-26T18:06:00.290Z,7.50
2023-01-26T18:08:31.606Z,7.70
2023-01-26T18:11:04.297Z,8.90
2023-01-26T18:13:35.501Z,8.50
2023-01-26T18:16:08.401Z,7.10
2023-01-26T18:18:39.516Z,6.80
2023-01-26T18:21:18.741Z,6.20
2023-01-26T18:23:51.786Z,8.10
2023-01-26T18:26:25.043Z,8.50
2023-01-26T18:28:56.205Z,6.80
2023-01-26T18:31:29.580Z,7.30
2023-01-26T18:34:02.258Z,7.20
2023-01-26T18:36:34.240Z,8.80
2023-01-26T18:39:12.951Z,9.60
2023-01-26T18:41:44.379Z,11.50
2023-01-26T18:44:15.451Z,12.00
2023-01-26T18:46:46.707Z,15.40
2023-01-26T18:49:17.715Z,12.70
2023-01-26T18:51:49.553Z,9.90
2023-01-26T18:54:21.064Z,9.00
2023-01-26T18:56:52.749Z,9.10
2023-01-26T19:01:53.182Z,9.60
2023-01-26T19:04:24.182Z,10.90
2023-01-26T19:06:55.191Z,9.50
2023-01-26T19:09:33.194Z,7.90
2023-01-26T19:12:04.628Z,6.30
2023-01-26T19:14:35.637Z,6.30
2023-01-26T19:17:06.649Z,8.30
2023-01-26T19:19:39.677Z,10.40
2023-01-26T19:22:11.219Z,8.20
2023-01-26T19:24:43.111Z,7.40
2023-01-26T19:27:14.184Z,7.10
2023-01-26T19:29:45.430Z,7.70
2023-01-26T19:32:16.298Z,8.70
2023-01-26T19:34:48.062Z,8.80
2023-01-26T19:37:19.310Z,8.30
2023-01-26T19:39:50.676Z,9.30
2023-01-26T19:44:51.170Z,8.20
2023-01-26T19:47:22.627Z,8.60
2023-01-26T19:49:53.816Z,7.70
2023-01-26T19:52:24.915Z,12.70
2023-01-26T19:54:55.936Z,16.80
2023-01-26T19:57:27.145Z,10.40
2023-01-26T19:59:58.268Z,6.90
2023-01-26T20:02:29.377Z,7.70
2023-01-26T20:05:00.283Z,7.80
2023-01-26T20:07:31.476Z,7.30
2023-01-26T20:10:02.685Z,6.70
2023-01-26T20:12:33.972Z,6.80
2023-01-26T20:15:04.946Z,6.90
2023-01-26T20:17:36.131Z,8.80
2023-01-26T20:20:11.304Z,9.00
2023-01-26T20:22:42.677Z,9.10
2023-01-26T20:25:14.095Z,10.10
2023-01-26T20:27:45.319Z,9.60
2023-01-26T20:30:17.027Z,10.40
2023-01-26T20:32:48.397Z,10.20
2023-01-26T20:37:48.947Z,9.20
2023-01-26T20:40:20.402Z,9.50
2023-01-26T20:45:21.236Z,10.40
2023-01-26T20:47:53.004Z,10.20
2023-01-26T20:50:23.979Z,10.20
2023-01-26T20:52:55.483Z,13.40
2023-01-26T20:55:26.470Z,14.40
2023-01-26T20:57:57.724Z,15.50
2023-01-26T21:00:29.088Z,22.30
2023-01-26T21:05:29.898Z,16.40
2023-01-26T21:08:01.027Z,18.60
2023-01-26T21:10:32.056Z,17.00
2023-01-26T21:13:03.161Z,19.30
2023-01-26T21:15:34.139Z,18.40
2023-01-26T21:18:05.411Z,27.20
2023-01-26T21:23:06.159Z,15.30
2023-01-26T21:25:37.034Z,19.90
2023-01-26T21:28:08.223Z,15.10
2023-01-26T21:33:08.944Z,14.60
2023-01-26T21:35:40.309Z,30.70
2023-01-26T21:38:11.290Z,24.50
2023-01-26T21:40:42.195Z,19.30
2023-01-26T21:43:13.146Z,17.60
2023-01-26T21:45:56.225Z,13.50
2023-01-26T21:48:35.897Z,11.90
2023-01-26T21:51:29.880Z,13.40
2023-01-26T21:54:01.981Z,14.00
2023-01-26T21:56:33.408Z,15.50
2023-01-26T21:59:07.686Z,15.60
2023-01-26T22:01:40.710Z,11.90
2023-01-26T22:04:14.065Z,11.00
2023-01-26T22:06:46.013Z,12.40
2023-01-26T22:09:18.294Z,11.00
2023-01-26T22:11:50.816Z,10.30
2023-01-26T22:14:25.051Z,11.60
2023-01-26T22:16:56.244Z,12.40
2023-01-26T22:19:27.149Z,11.80
2023-01-26T22:21:58.059Z,10.60
2023-01-26T22:24:29.267Z,11.90
2023-01-26T22:27:00.281Z,11.90
2023-01-26T22:29:31.307Z,12.50
2023-01-26T22:32:02.784Z,12.60
2023-01-26T22:34:34.254Z,11.80
2023-01-26T22:37:06.049Z,11.90
2023-01-26T22:39:37.040Z,11.80
2023-01-26T22:42:08.342Z,11.10
2023-01-26T22:47:09.002Z,15.50
2023-01-26T22:49:40.112Z,15.40
2023-01-26T22:52:11.716Z,18.10
2023-01-26T22:54:42.741Z,25.60
2023-01-26T22:57:13.599Z,14.50
2023-01-26T22:59:45.020Z,11.90
2023-01-26T23:02:16.299Z,19.30
2023-01-26T23:04:47.436Z,14.90
2023-01-26T23:07:18.376Z,12.20
2023-01-26T23:09:49.497Z,12.20
2023-01-26T23:14:50.409Z,12.00
2023-01-26T23:19:51.423Z,10.40
2023-01-26T23:22:22.434Z,10.80
2023-01-26T23:25:07.225Z,12.70
2023-01-26T23:27:38.110Z,12.10
2023-01-26T23:30:11.307Z,13.00
2023-01-26T23:32:42.684Z,12.90
2023-01-26T23:35:13.780Z,15.70
2023-01-26T23:37:45.005Z,12.60
2023-01-26T23:40:16.689Z,13.30
2023-01-26T23:45:37.303Z,11.40
2023-01-26T23:50:38.312Z,11.90
2023-01-26T23:53:09.590Z,11.40
2023-01-26T23:55:43.011Z,11.60
2023-01-26T23:58:14.313Z,11.70
